createdAt,value
2023-03-18T00:01:10.705Z,8.70
2023-03-18T00:03:39.456Z,8.80
2023-03-18T00:06:09.479Z,8.80
2023-03-18T00:08:39.416Z,8.80
2023-03-18T00:11:07.824Z,8.80
2023-03-18T00:13:36.074Z,8.80
2023-03-18T00:16:05.134Z,8.80
2023-03-18T00:18:34.365Z,8.80
2023-03-18T00:21:02.417Z,8.80
2023-03-18T00:23:30.377Z,8.80
2023-03-18T00:26:01.359Z,8.80
2023-03-18T00:28:29.918Z,8.80
2023-03-18T00:31:03.985Z,8.90
2023-03-18T00:33:31.751Z,8.90
2023-03-18T00:35:59.727Z,8.90
2023-03-18T00:38:27.533Z,8.90
2023-03-18T00:41:01.536Z,8.80
2023-03-18T00:43:35.881Z,8.80
2023-03-18T00:46:03.645Z,8.80
2023-03-18T00:48:31.477Z,8.80
2023-03-18T00:50:59.205Z,8.70
2023-03-18T00:53:26.945Z,8.50
2023-03-18T00:55:55.396Z,8.50
2023-03-18T00:58:23.200Z,8.40
2023-03-18T01:00:52.683Z,8.30
2023-03-18T01:03:20.480Z,8.30
2023-03-18T01:05:48.196Z,8.30
2023-03-18T01:08:15.938Z,8.40
2023-03-18T01:10:43.859Z,8.40
2023-03-18T01:13:11.662Z,8.40
2023-03-18T01:15:39.377Z,8.50
2023-03-18T01:18:08.971Z,8.50
2023-03-18T01:20:38.002Z,8.50
2023-03-18T01:23:07.230Z,8.50
2023-03-18T01:25:35.331Z,8.50
2023-03-18T01:28:03.896Z,8.40
2023-03-18T01:30:32.410Z,8.40
2023-03-18T01:33:00.826Z,8.40
2023-03-18T01:35:30.876Z,8.40
2023-03-18T01:37:58.882Z,8.40
2023-03-18T01:40:28.497Z,8.40
2023-03-18T01:42:59.233Z,8.40
2023-03-18T01:45:29.166Z,8.50
2023-03-18T01:47:58.332Z,8.50
2023-03-18T01:50:32.326Z,8.40
2023-03-18T01:53:04.003Z,8.40
2023-03-18T01:55:33.327Z,8.40
2023-03-18T01:58:04.496Z,8.50
2023-03-18T02:00:32.640Z,8.50
2023-03-18T02:03:00.609Z,8.50
2023-03-18T02:05:29.792Z,8.50
2023-03-18T02:07:57.741Z,8.60
2023-03-18T02:10:33.005Z,8.60
2023-03-18T02:13:05.243Z,8.60
2023-03-18T02:15:33.913Z,8.60
2023-03-18T02:18:05.992Z,8.60
2023-03-18T02:20:45.888Z,8.60
2023-03-18T02:23:22.518Z,8.70
2023-03-18T02:25:54.979Z,8.70
2023-03-18T02:28:27.298Z,8.70
2023-03-18T02:30:58.162Z,8.70
2023-03-18T02:33:32.634Z,8.60
2023-03-18T02:36:06.093Z,8.60
2023-03-18T02:38:34.225Z,8.60
2023-03-18T02:41:02.352Z,8.50
2023-03-18T02:43:32.993Z,8.50
2023-03-18T02:46:22.487Z,8.50
2023-03-18T02:48:51.151Z,8.40
2023-03-18T02:51:19.354Z,8.40
2023-03-18T02:53:47.363Z,8.40
2023-03-18T02:56:16.042Z,8.60
2023-03-18T02:58:45.240Z,8.70
2023-03-18T03:01:13.138Z,8.70
2023-03-18T03:03:41.518Z,8.70
2023-03-18T03:06:09.679Z,8.80
2023-03-18T03:08:37.505Z,8.70
2023-03-18T03:11:06.041Z,8.70
2023-03-18T03:13:33.781Z,8.60
2023-03-18T03:16:03.830Z,8.60
2023-03-18T03:18:31.637Z,8.50
2023-03-18T03:20:59.629Z,8.50
2023-03-18T03:23:27.411Z,8.50
2023-03-18T03:25:55.168Z,8.50
2023-03-18T03:28:22.964Z,8.50
2023-03-18T03:30:51.096Z,8.40
2023-03-18T03:33:20.440Z,8.50
2023-03-18T03:35:48.185Z,8.40
2023-03-18T03:38:16.133Z,8.40
2023-03-18T03:40:45.196Z,8.40
2023-03-18T03:43:13.941Z,8.40
2023-03-18T03:45:42.012Z,8.40
2023-03-18T03:48:09.848Z,8.40
2023-03-18T03:50:40.179Z,8.40
2023-03-18T03:53:08.064Z,8.30
2023-03-18T03:55:35.937Z,8.30
2023-03-18T03:58:04.381Z,8.40
2023-03-18T04:00:33.154Z,8.40
2023-03-18T04:03:01.074Z,8.30
2023-03-18T04:05:29.694Z,8.30
2023-03-18T04:07:59.934Z,8.20
2023-03-18T04:10:28.679Z,8.10
2023-03-18T04:12:56.453Z,8.00
2023-03-18T04:15:24.407Z,8.00
2023-03-18T04:17:52.156Z,7.90
2023-03-18T04:20:20.870Z,7.90
2023-03-18T04:22:49.296Z,7.90
2023-03-18T04:25:18.545Z,7.80
2023-03-18T04:27:46.273Z,7.80
2023-03-18T04:30:15.154Z,7.80
2023-03-18T04:32:42.984Z,7.80
2023-03-18T04:35:11.735Z,7.80
2023-03-18T04:37:39.439Z,7.80
2023-03-18T04:40:08.174Z,7.80
2023-03-18T04:42:37.235Z,7.70
2023-03-18T04:45:05.814Z,7.70
2023-03-18T04:47:35.105Z,7.60
2023-03-18T04:50:04.498Z,7.70
2023-03-18T04:52:32.512Z,7.60
2023-03-18T04:55:00.323Z,7.70
2023-03-18T04:57:28.621Z,7.70
2023-03-18T04:59:58.239Z,7.70
2023-03-18T05:02:25.994Z,7.70
2023-03-18T05:04:53.678Z,7.60
2023-03-18T05:07:21.655Z,7.60
2023-03-18T05:09:49.496Z,7.60
2023-03-18T05:12:17.802Z,7.60
2023-03-18T05:14:46.052Z,7.50
2023-03-18T05:17:16.403Z,7.50
2023-03-18T05:19:45.108Z,7.50
2023-03-18T05:22:13.478Z,7.50
2023-03-18T05:24:43.141Z,7.40
2023-03-18T05:27:12.175Z,7.40
2023-03-18T05:29:41.061Z,7.40
2023-03-18T05:32:09.614Z,7.40
2023-03-18T05:34:40.470Z,7.40
2023-03-18T05:37:10.089Z,7.40
2023-03-18T05:39:38.402Z,7.40
2023-03-18T05:42:07.283Z,7.40
2023-03-18T05:44:35.461Z,7.30
2023-03-18T05:47:03.223Z,7.30
2023-03-18T05:49:31.170Z,7.30
2023-03-18T05:52:00.187Z,7.30
2023-03-18T05:54:28.777Z,7.30
2023-03-18T05:56:56.629Z,7.30
2023-03-18T05:59:25.262Z,7.30
2023-03-18T06:01:53.808Z,7.40
2023-03-18T06:04:21.674Z,7.40
2023-03-18T06:06:49.761Z,7.40
2023-03-18T06:09:18.889Z,7.50
2023-03-18T06:11:46.656Z,7.60
2023-03-18T06:14:14.925Z,7.60
2023-03-18T06:16:43.662Z,7.60
2023-03-18T06:19:11.969Z,7.70
2023-03-18T06:21:39.895Z,7.80
2023-03-18T06:24:08.390Z,7.80
2023-03-18T06:26:37.677Z,7.90
2023-03-18T06:29:05.432Z,7.90
2023-03-18T06:31:33.200Z,8.00
2023-03-18T06:34:01.497Z,8.10
2023-03-18T06:36:29.369Z,8.10
2023-03-18T06:38:57.599Z,8.20
2023-03-18T06:41:25.316Z,8.40
2023-03-18T06:43:54.383Z,8.40
2023-03-18T06:46:22.167Z,8.40
2023-03-18T06:48:49.866Z,8.50
2023-03-18T06:51:17.876Z,8.50
2023-03-18T06:53:45.593Z,8.50
2023-03-18T06:56:16.253Z,8.60
2023-03-18T06:58:44.608Z,8.70
2023-03-18T07:01:13.979Z,8.70
2023-03-18T07:03:42.344Z,8.80
2023-03-18T07:06:10.720Z,8.80
2023-03-18T07:08:39.048Z,8.90
2023-03-18T07:11:08.196Z,8.90
2023-03-18T07:13:35.888Z,9.00
2023-03-18T07:16:03.833Z,9.00
2023-03-18T07:18:32.973Z,9.10
2023-03-18T07:21:00.766Z,9.20
2023-03-18T07:23:28.764Z,9.30
2023-03-18T07:25:56.630Z,9.40
2023-03-18T07:28:24.664Z,9.50
2023-03-18T07:30:54.170Z,9.50
2023-03-18T07:33:22.270Z,9.60
2023-03-18T07:35:51.401Z,9.70
2023-03-18T07:38:19.238Z,9.80
2023-03-18T07:40:47.003Z,9.90
2023-03-18T07:43:14.704Z,10.00
2023-03-18T07:45:42.502Z,10.10
2023-03-18T07:48:10.279Z,10.10
2023-03-18T07:50:38.040Z,10.30
2023-03-18T07:53:07.113Z,10.40
2023-03-18T07:55:35.438Z,10.50
2023-03-18T07:58:04.617Z,10.70
2023-03-18T08:00:32.530Z,11.00
2023-03-18T08:03:00.253Z,11.40
2023-03-18T08:05:28.353Z,11.70
2023-03-18T08:07:56.306Z,11.90
2023-03-18T08:10:25.413Z,12.20
2023-03-18T08:12:54.114Z,12.60
2023-03-18T08:15:22.578Z,13.50
2023-03-18T08:17:50.566Z,14.00
2023-03-18T08:20:18.643Z,15.00
2023-03-18T08:22:46.706Z,15.90
2023-03-18T08:25:14.479Z,16.60
2023-03-18T08:27:43.723Z,16.80
2023-03-18T08:30:13.736Z,17.40
2023-03-18T08:32:41.985Z,17.80
2023-03-18T08:35:11.344Z,16.90
2023-03-18T08:37:39.344Z,15.90
2023-03-18T08:40:09.742Z,15.60
2023-03-18T08:42:37.484Z,16.00
2023-03-18T08:45:07.752Z,15.40
2023-03-18T08:47:35.434Z,14.60
2023-03-18T08:50:03.288Z,14.00
2023-03-18T08:52:32.395Z,13.60
2023-03-18T08:55:00.270Z,13.50
2023-03-18T08:57:28.104Z,13.70
2023-03-18T08:59:55.828Z,14.70
2023-03-18T09:02:24.914Z,16.00
2023-03-18T09:04:54.533Z,16.80
2023-03-18T09:07:22.607Z,16.50
2023-03-18T09:09:50.590Z,15.90
2023-03-18T09:12:18.410Z,15.50
2023-03-18T09:14:47.260Z,15.50
2023-03-18T09:17:15.644Z,15.50
2023-03-18T09:19:44.704Z,15.80
2023-03-18T09:22:12.676Z,16.00
2023-03-18T09:24:40.615Z,15.90
2023-03-18T09:27:08.378Z,15.90
2023-03-18T09:29:36.608Z,15.60
2023-03-18T09:32:04.347Z,15.50
2023-03-18T09:34:32.055Z,15.50
2023-03-18T09:37:01.099Z,16.00
2023-03-18T09:39:29.290Z,16.60
2023-03-18T09:42:14.253Z,16.90
2023-03-18T09:44:42.674Z,16.50
2023-03-18T09:47:24.687Z,16.20
2023-03-18T09:50:16.530Z,16.40
2023-03-18T09:52:49.631Z,16.80
2023-03-18T09:55:24.778Z,17.40
2023-03-18T09:57:55.887Z,18.50
2023-03-18T10:00:27.789Z,20.50
2023-03-18T10:03:00.094Z,21.80
2023-03-18T10:05:33.834Z,23.60
2023-03-18T10:08:10.302Z,24.40
2023-03-18T10:10:40.639Z,24.90
2023-03-18T10:13:15.447Z,25.30
2023-03-18T10:15:46.693Z,25.00
2023-03-18T10:18:19.806Z,25.90
2023-03-18T10:20:59.116Z,26.80
2023-03-18T10:23:42.017Z,26.70
2023-03-18T10:26:17.479Z,26.00
2023-03-18T10:29:01.446Z,25.60
2023-03-18T10:31:39.715Z,25.40
2023-03-18T10:34:11.833Z,23.80
2023-03-18T10:36:45.013Z,21.90
2023-03-18T10:39:17.749Z,21.90
2023-03-18T10:41:50.010Z,23.20
2023-03-18T10:44:23.650Z,23.90
2023-03-18T10:47:00.337Z,24.00
2023-03-18T10:49:32.814Z,24.00
2023-03-18T10:52:07.865Z,24.20
2023-03-18T10:54:41.952Z,24.00
2023-03-18T10:57:14.097Z,24.30
2023-03-18T10:59:44.637Z,24.40
2023-03-18T11:02:20.067Z,24.90
2023-03-18T11:04:50.652Z,24.40
2023-03-18T11:07:23.680Z,24.30
2023-03-18T11:09:53.266Z,24.70
2023-03-18T11:12:25.681Z,25.00
2023-03-18T11:14:53.832Z,25.20
2023-03-18T11:17:23.786Z,25.20
2023-03-18T11:20:02.225Z,25.20
2023-03-18T11:22:32.158Z,25.20
2023-03-18T11:25:12.898Z,24.50
2023-03-18T11:27:42.824Z,23.50
2023-03-18T11:30:32.778Z,21.80
2023-03-18T11:33:05.768Z,21.10
2023-03-18T11:35:38.540Z,21.10
2023-03-18T11:38:07.536Z,21.40
2023-03-18T11:40:40.339Z,21.30
2023-03-18T11:43:21.878Z,21.60
2023-03-18T11:45:54.970Z,21.40
2023-03-18T11:48:32.445Z,21.80
2023-03-18T11:51:45.756Z,21.40
2023-03-18T11:54:38.224Z,20.60
2023-03-18T11:57:14.677Z,20.40
2023-03-18T11:59:55.004Z,20.50
2023-03-18T12:02:40.563Z,20.50
2023-03-18T12:05:33.552Z,20.60
2023-03-18T12:08:11.910Z,20.70
2023-03-18T12:10:48.177Z,20.70
2023-03-18T12:13:36.323Z,20.60
2023-03-18T12:16:11.506Z,20.30
2023-03-18T12:18:53.726Z,20.20
2023-03-18T12:21:42.987Z,20.10
2023-03-18T12:24:27.567Z,20.10
2023-03-18T12:27:04.671Z,20.10
2023-03-18T12:29:52.519Z,20.00
2023-03-18T12:32:31.105Z,19.70
2023-03-18T12:35:16.125Z,19.50
2023-03-18T12:37:58.834Z,19.70
2023-03-18T12:40:35.622Z,19.90
2023-03-18T12:43:27.201Z,20.20
2023-03-18T12:46:02.435Z,20.30
2023-03-18T12:48:43.630Z,20.30
2023-03-18T12:51:18.231Z,20.20
2023-03-18T12:53:49.312Z,20.00
2023-03-18T12:56:21.434Z,20.00
2023-03-18T12:58:52.062Z,19.90
2023-03-18T13:01:25.690Z,20.20
2023-03-18T13:04:01.463Z,20.30
2023-03-18T13:06:37.565Z,20.40
2023-03-18T13:09:12.947Z,20.20
2023-03-18T13:12:01.828Z,19.90
2023-03-18T13:14:44.741Z,19.70
2023-03-18T13:17:16.613Z,19.70
2023-03-18T13:19:44.820Z,19.80
2023-03-18T13:22:37.832Z,19.80
2023-03-18T13:25:15.660Z,19.70
2023-03-18T13:28:00.690Z,19.50
2023-03-18T13:30:36.718Z,19.40
2023-03-18T13:33:22.326Z,19.40
2023-03-18T13:36:23.490Z,19.50
2023-03-18T13:39:07.073Z,19.60
2023-03-18T13:42:12.161Z,19.50
2023-03-18T13:44:43.902Z,19.30
2023-03-18T13:47:18.363Z,19.20
2023-03-18T13:49:48.596Z,19.20
2023-03-18T13:52:33.853Z,19.10
2023-03-18T13:55:05.331Z,19.10
2023-03-18T13:57:36.943Z,19.00
2023-03-18T14:00:26.326Z,18.90
2023-03-18T14:03:29.982Z,18.90
2023-03-18T14:06:39.334Z,19.00
2023-03-18T14:09:32.983Z,19.00
2023-03-18T14:12:24.066Z,18.90
2023-03-18T14:15:06.067Z,18.90
2023-03-18T14:17:47.620Z,18.80
2023-03-18T14:20:23.886Z,18.70
2023-03-18T14:22:54.774Z,18.70
2023-03-18T14:25:37.524Z,18.60
2023-03-18T14:28:24.784Z,18.60
2023-03-18T14:31:21.580Z,18.50
2023-03-18T14:34:03.933Z,18.40
2023-03-18T14:36:48.986Z,18.40
2023-03-18T14:39:22.833Z,18.40
2023-03-18T14:41:56.351Z,18.30
2023-03-18T14:44:34.547Z,18.30
2023-03-18T14:47:20.613Z,18.30
2023-03-18T14:50:01.180Z,18.20
2023-03-18T14:52:34.881Z,18.20
2023-03-18T14:55:09.119Z,18.20
2023-03-18T14:57:36.839Z,18.10
2023-03-18T15:00:06.909Z,18.10
2023-03-18T15:02:38.177Z,18.00
2023-03-18T15:05:07.632Z,17.90
2023-03-18T15:07:37.890Z,17.90
2023-03-18T15:10:11.441Z,17.90
2023-03-18T15:12:39.570Z,17.90
2023-03-18T15:15:12.714Z,17.80
2023-03-18T15:17:42.310Z,17.80
2023-03-18T15:20:14.141Z,17.70
2023-03-18T15:22:43.475Z,17.70
2023-03-18T15:25:19.120Z,17.60
2023-03-18T15:27:47.210Z,17.60
2023-03-18T15:30:26.508Z,17.60
2023-03-18T15:33:04.442Z,17.40
2023-03-18T15:35:32.842Z,17.30
2023-03-18T15:38:14.367Z,17.10
2023-03-18T15:40:51.950Z,16.90
2023-03-18T15:43:30.648Z,16.80
2023-03-18T15:46:00.641Z,16.70
2023-03-18T15:48:33.399Z,16.80
2023-03-18T15:51:03.069Z,16.80
2023-03-18T15:53:40.235Z,16.80
2023-03-18T15:56:19.665Z,16.80
2023-03-18T15:58:57.452Z,16.80
2023-03-18T16:01:25.481Z,16.80
2023-03-18T16:03:53.304Z,16.80
2023-03-18T16:06:22.704Z,16.80
2023-03-18T16:08:51.085Z,16.70
2023-03-18T16:11:20.140Z,16.70
2023-03-18T16:13:48.155Z,16.70
2023-03-18T16:16:19.420Z,16.70
2023-03-18T16:18:47.196Z,16.70
2023-03-18T16:21:15.812Z,16.70
2023-03-18T16:23:43.883Z,16.60
2023-03-18T16:26:16.111Z,16.60
2023-03-18T16:28:47.882Z,16.50
2023-03-18T16:31:16.304Z,16.50
2023-03-18T16:33:46.293Z,16.50
2023-03-18T16:36:26.418Z,16.50
2023-03-18T16:38:54.138Z,16.50
2023-03-18T16:41:21.887Z,16.40
2023-03-18T16:43:51.036Z,16.30
2023-03-18T16:46:19.279Z,16.20
2023-03-18T16:48:47.414Z,16.10
2023-03-18T16:51:15.140Z,16.10
2023-03-18T16:53:43.826Z,16.00
2023-03-18T16:56:16.758Z,15.90
2023-03-18T16:58:45.389Z,15.80
2023-03-18T17:01:16.750Z,15.60
2023-03-18T17:03:45.666Z,15.50
2023-03-18T17:06:14.843Z,15.30
2023-03-18T17:08:42.719Z,15.20
2023-03-18T17:11:19.150Z,15.10
2023-03-18T17:13:47.334Z,14.90
2023-03-18T17:16:18.726Z,14.80
2023-03-18T17:18:46.522Z,14.80
2023-03-18T17:21:14.270Z,14.60
2023-03-18T17:23:42.812Z,14.50
2023-03-18T17:26:14.641Z,14.30
2023-03-18T17:28:44.697Z,14.20
2023-03-18T17:31:13.495Z,14.00
2023-03-18T17:33:43.057Z,13.80
2023-03-18T17:36:10.990Z,13.70
2023-03-18T17:38:38.759Z,13.60
2023-03-18T17:41:14.800Z,13.50
2023-03-18T17:43:43.037Z,13.50
2023-03-18T17:46:10.957Z,13.50
2023-03-18T17:48:41.058Z,13.50
2023-03-18T17:51:16.177Z,13.30
2023-03-18T17:53:46.207Z,13.20
2023-03-18T17:56:15.939Z,13.10
2023-03-18T17:58:45.639Z,12.90
2023-03-18T18:01:16.313Z,12.80
2023-03-18T18:03:44.498Z,12.70
2023-03-18T18:06:18.573Z,12.60
2023-03-18T18:08:46.982Z,12.50
2023-03-18T18:11:20.266Z,12.40
2023-03-18T18:13:48.630Z,12.30
2023-03-18T18:16:17.264Z,12.30
2023-03-18T18:18:47.675Z,12.30
2023-03-18T18:21:19.971Z,12.40
2023-03-18T18:23:48.660Z,12.30
2023-03-18T18:26:19.629Z,12.30
2023-03-18T18:28:49.396Z,12.40
2023-03-18T18:31:19.370Z,12.30
2023-03-18T18:33:49.997Z,12.30
2023-03-18T18:36:19.211Z,12.30
2023-03-18T18:38:47.407Z,12.30
2023-03-18T18:41:15.287Z,12.30
2023-03-18T18:43:43.104Z,12.30
2023-03-18T18:46:15.039Z,12.40
2023-03-18T18:48:44.664Z,12.70
2023-03-18T18:51:16.912Z,12.80
2023-03-18T18:53:46.727Z,13.00
2023-03-18T18:56:18.460Z,13.00
2023-03-18T18:58:47.143Z,13.20
2023-03-18T19:01:16.104Z,13.20
2023-03-18T19:03:44.192Z,13.10
2023-03-18T19:06:21.718Z,13.20
2023-03-18T19:08:51.068Z,13.10
2023-03-18T19:11:18.875Z,13.00
2023-03-18T19:13:47.717Z,13.00
2023-03-18T19:16:23.583Z,13.00
2023-03-18T19:18:51.410Z,13.00
2023-03-18T19:21:19.164Z,12.90
2023-03-18T19:23:46.929Z,12.90
2023-03-18T19:26:16.911Z,12.90
2023-03-18T19:28:59.418Z,13.00
2023-03-18T19:31:31.191Z,12.80
2023-03-18T19:34:00.560Z,12.80
2023-03-18T19:36:30.499Z,12.80
2023-03-18T19:39:00.207Z,12.80
2023-03-18T19:41:29.715Z,12.70
2023-03-18T19:44:01.863Z,12.60
2023-03-18T19:46:37.001Z,12.60
2023-03-18T19:49:10.388Z,12.50
2023-03-18T19:51:38.209Z,12.40
2023-03-18T19:54:24.465Z,12.20
2023-03-18T19:56:54.091Z,12.00
2023-03-18T19:59:24.128Z,11.90
2023-03-18T20:01:52.278Z,11.90
2023-03-18T20:04:21.562Z,11.80
2023-03-18T20:06:50.387Z,11.70
2023-03-18T20:09:18.780Z,11.60
2023-03-18T20:11:47.708Z,11.60
2023-03-18T20:14:23.261Z,11.50
2023-03-18T20:16:51.022Z,11.40
2023-03-18T20:19:18.903Z,11.40
2023-03-18T20:21:47.190Z,11.40
2023-03-18T20:24:17.861Z,11.50
2023-03-18T20:26:45.721Z,11.50
2023-03-18T20:29:17.965Z,11.50
2023-03-18T20:31:47.214Z,11.50
2023-03-18T20:34:15.537Z,11.50
2023-03-18T20:36:43.856Z,11.30
2023-03-18T20:39:20.280Z,11.30
2023-03-18T20:41:48.898Z,11.30
2023-03-18T20:44:16.768Z,11.10
2023-03-18T20:46:44.469Z,11.10
2023-03-18T20:49:14.134Z,11.10
2023-03-18T20:51:42.211Z,11.10
2023-03-18T20:54:18.822Z,11.00
2023-03-18T20:56:46.970Z,11.00
2023-03-18T20:59:14.793Z,10.90
2023-03-18T21:01:42.999Z,10.90
2023-03-18T21:04:14.095Z,10.70
2023-03-18T21:06:42.291Z,10.60
2023-03-18T21:09:12.412Z,10.50
2023-03-18T21:11:40.539Z,10.40
2023-03-18T21:14:08.601Z,10.40
2023-03-18T21:16:37.822Z,10.30
2023-03-18T21:19:05.946Z,10.20
2023-03-18T21:21:38.319Z,10.00
2023-03-18T21:24:23.585Z,9.90
2023-03-18T21:27:03.825Z,9.80
2023-03-18T21:29:32.949Z,9.80
2023-03-18T21:32:00.940Z,9.80
2023-03-18T21:34:28.640Z,9.60
2023-03-18T21:36:57.955Z,9.70
2023-03-18T21:39:25.802Z,9.60
2023-03-18T21:41:53.564Z,9.60
2023-03-18T21:44:21.780Z,9.40
2023-03-18T21:46:49.842Z,9.20
2023-03-18T21:49:17.586Z,9.10
2023-03-18T21:51:45.686Z,9.00
2023-03-18T21:54:18.610Z,8.90
2023-03-18T21:56:46.328Z,8.80
2023-03-18T21:59:14.068Z,8.80
2023-03-18T22:01:41.860Z,8.90
2023-03-18T22:04:09.649Z,8.90
2023-03-18T22:06:37.390Z,8.80
2023-03-18T22:09:05.614Z,8.90
2023-03-18T22:11:34.695Z,8.80
2023-03-18T22:14:02.557Z,8.60
2023-03-18T22:16:30.426Z,8.60
2023-03-18T22:18:58.188Z,8.50
2023-03-18T22:21:28.371Z,8.30
2023-03-18T22:23:58.106Z,8.30
2023-03-18T22:26:25.940Z,8.10
2023-03-18T22:28:55.019Z,7.80
2023-03-18T22:31:25.327Z,7.70
2023-03-18T22:33:53.894Z,7.60
2023-03-18T22:36:22.602Z,7.60
2023-03-18T22:38:50.935Z,7.70
2023-03-18T22:41:21.342Z,7.80
2023-03-18T22:43:49.880Z,7.80
2023-03-18T22:46:19.143Z,7.80
2023-03-18T22:48:46.893Z,7.80
2023-03-18T22:51:22.948Z,7.70
2023-03-18T22:53:52.909Z,7.80
2023-03-18T22:56:22.289Z,7.60
2023-03-18T22:58:50.400Z,7.60
2023-03-18T23:01:21.843Z,7.60
2023-03-18T23:03:50.476Z,7.60
2023-03-18T23:06:21.123Z,7.60
2023-03-18T23:08:48.989Z,7.60
2023-03-18T23:11:17.804Z,7.60
2023-03-18T23:13:49.770Z,7.70
2023-03-18T23:16:21.190Z,7.70
2023-03-18T23:18:50.058Z,7.70
2023-03-18T23:21:19.829Z,7.70
2023-03-18T23:23:47.611Z,7.60
2023-03-18T23:26:16.120Z,7.50
2023-03-18T23:28:45.142Z,7.40
2023-03-18T23:31:13.734Z,7.30
2023-03-18T23:33:43.026Z,7.10
2023-03-18T23:36:11.819Z,7.00
2023-03-18T23:38:39.704Z,6.90
2023-03-18T23:41:08.096Z,6.80
2023-03-18T23:43:35.960Z,6.80
2023-03-18T23:46:03.802Z,6.80
2023-03-18T23:48:32.485Z,6.90
2023-03-18T23:51:02.241Z,6.90
2023-03-18T23:53:30.046Z,6.90
2023-03-18T23:55:57.786Z,6.90
2023-03-18T23:58:25.601Z,7.00
